Time;durP1;ratioP1;P1;durP2;ratioP2;P2;SDS_P1;SDS_P2;PMS_P1;PMS_P2;Temp;Humidity;BMP_temperature;BMP_pressure;BME280_temperature;BME280_humidity;BME280_pressure;Samples;Min_cycle;Max_cycle;Signal;HPM_P1;HPM_P2
2022/11/08 00:02:45;;;;;;;31.42;19.90;;;;;;;;;;5039483;28;20116;-85
2022/11/08 00:14:45;;;;;;;35.00;19.42;;;;;;;;;;5038138;28;20040;-84
2022/11/08 00:17:31;;;;;;;31.38;18.60;;;;;;;;;;5023246;28;20036;-87
2022/11/08 00:20:18;;;;;;;33.63;19.88;;;;;;;;;;5023012;28;20041;-86
2022/11/08 00:23:04;;;;;;;35.92;19.98;;;;;;;;;;5023719;28;20029;-84
2022/11/08 00:25:53;;;;;;;30.95;18.58;;;;;;;;;;5022739;28;20083;-85
2022/11/08 00:28:39;;;;;;;31.80;19.48;;;;;;;;;;5023427;28;20037;-84
2022/11/08 00:31:26;;;;;;;30.80;17.70;;;;;;;;;;5022349;28;20126;-85
2022/11/08 00:34:11;;;;;;;30.83;18.13;;;;;;;;;;5022707;28;20029;-84
2022/11/08 00:36:58;;;;;;;30.73;17.70;;;;;;;;;;5022888;28;20068;-84
2022/11/08 00:39:44;;;;;;;28.15;18.10;;;;;;;;;;5022557;28;20039;-84
2022/11/08 00:42:31;;;;;;;31.42;19.08;;;;;;;;;;5036899;28;20037;-83
2022/11/08 00:45:17;;;;;;;28.15;17.42;;;;;;;;;;5021799;28;20055;-83
2022/11/08 00:48:03;;;;;;;30.35;18.27;;;;;;;;;;5023241;28;20036;-84
2022/11/08 00:50:49;;;;;;;30.63;17.98;;;;;;;;;;5022598;28;20480;-85
2022/11/08 00:53:37;;;;;;;31.65;18.27;;;;;;;;;;5022098;28;20037;-85
2022/11/08 00:56:23;;;;;;;30.60;17.33;;;;;;;;;;5037043;28;20450;-85
2022/11/08 00:59:11;;;;;;;30.80;18.30;;;;;;;;;;5022930;28;20060;-85
2022/11/08 01:01:58;;;;;;;29.35;17.42;;;;;;;;;;5036730;28;20064;-85
2022/11/08 01:04:45;;;;;;;29.05;17.85;;;;;;;;;;5022396;28;20033;-84
2022/11/08 01:07:32;;;;;;;29.98;16.27;;;;;;;;;;5018058;28;20037;-85
2022/11/08 01:10:19;;;;;;;27.75;16.42;;;;;;;;;;5015956;28;20042;-85
2022/11/08 01:13:05;;;;;;;30.90;16.50;;;;;;;;;;5016638;28;20025;-85
2022/11/08 01:15:50;;;;;;;28.10;16.60;;;;;;;;;;5004160;28;20041;-85
2022/11/08 01:18:36;;;;;;;25.92;16.02;;;;;;;;;;5004245;28;20034;-84
2022/11/08 01:21:22;;;;;;;27.33;15.95;;;;;;;;;;5016011;28;20480;-85
2022/11/08 01:24:09;;;;;;;30.15;16.55;;;;;;;;;;5015758;28;20065;-85
2022/11/08 01:26:56;;;;;;;23.63;14.95;;;;;;;;;;5017233;28;20163;-85
2022/11/08 01:29:45;;;;;;;24.38;15.18;;;;;;;;;;5007634;28;20033;-84
2022/11/08 01:32:32;;;;;;;25.50;14.68;;;;;;;;;;5005795;28;20022;-85
2022/11/08 01:35:18;;;;;;;27.10;14.85;;;;;;;;;;5019366;28;20037;-85
2022/11/08 01:38:04;;;;;;;28.42;15.13;;;;;;;;;;5006811;28;20038;-85
2022/11/08 01:40:51;;;;;;;23.75;15.00;;;;;;;;;;5020339;28;20113;-85
2022/11/08 01:43:47;;;;;;;23.55;14.35;;;;;;;;;;5018819;28;20037;-84
2022/11/08 01:46:38;;;;;;;26.02;14.75;;;;;;;;;;5019279;28;20522;-84
2022/11/08 01:49:42;;;;;;;24.92;14.77;;;;;;;;;;5019337;28;20494;-84
2022/11/08 01:52:31;;;;;;;22.08;13.40;;;;;;;;;;5019811;28;20071;-85
2022/11/08 01:55:21;;;;;;;24.80;14.00;;;;;;;;;;5019310;28;20086;-85
2022/11/08 01:58:13;;;;;;;25.63;14.45;;;;;;;;;;5020164;28;20048;-85
2022/11/08 02:01:00;;;;;;;22.15;13.60;;;;;;;;;;5019977;28;20087;-84
2022/11/08 02:03:47;;;;;;;25.30;13.52;;;;;;;;;;5005483;28;20403;-85
2022/11/08 02:06:33;;;;;;;24.98;14.15;;;;;;;;;;5019868;28;20553;-84
2022/11/08 02:09:19;;;;;;;24.98;14.57;;;;;;;;;;5011709;28;20041;-85
2022/11/08 02:12:06;;;;;;;21.15;12.70;;;;;;;;;;5005516;28;20045;-84
2022/11/08 02:14:52;;;;;;;21.30;12.45;;;;;;;;;;5005265;28;20462;-84
2022/11/08 02:17:39;;;;;;;21.67;12.90;;;;;;;;;;5019664;28;20041;-84
2022/11/08 02:20:26;;;;;;;22.95;14.27;;;;;;;;;;5019203;28;20029;-85
2022/11/08 02:23:25;;;;;;;21.80;12.73;;;;;;;;;;5017918;28;20037;-85
2022/11/08 02:26:11;;;;;;;19.52;11.35;;;;;;;;;;5031685;28;20439;-84
2022/11/08 02:28:58;;;;;;;22.40;12.63;;;;;;;;;;5017826;28;20065;-84
2022/11/08 02:31:44;;;;;;;19.88;12.32;;;;;;;;;;5019963;28;20040;-84
2022/11/08 02:34:37;;;;;;;20.55;11.75;;;;;;;;;;5005068;28;20116;-85
2022/11/08 02:37:24;;;;;;;;;;;;;;;;;;5033384;28;20040;-85
2022/11/08 02:40:11;;;;;;;20.83;12.00;;;;;;;;;;5018093;28;19913;-85
2022/11/08 02:42:56;;;;;;;21.45;12.07;;;;;;;;;;5018227;28;20120;-85
2022/11/08 02:45:43;;;;;;;20.17;12.18;;;;;;;;;;5018502;28;20103;-84
2022/11/08 02:48:29;;;;;;;20.17;11.55;;;;;;;;;;5004858;28;20034;-85
2022/11/08 02:51:15;;;;;;;20.70;11.13;;;;;;;;;;5018450;28;20044;-85
2022/11/08 02:54:02;;;;;;;18.88;10.35;;;;;;;;;;5017176;28;20037;-85
2022/11/08 02:56:48;;;;;;;19.65;12.02;;;;;;;;;;5004295;28;20038;-84
2022/11/08 02:59:34;;;;;;;16.58;11.30;;;;;;;;;;5031851;28;20041;-85
2022/11/08 03:02:21;;;;;;;21.45;11.43;;;;;;;;;;5018356;28;20037;-85
2022/11/08 03:05:08;;;;;;;18.45;10.13;;;;;;;;;;5004529;28;20060;-84
2022/11/08 03:07:55;;;;;;;19.15;11.27;;;;;;;;;;5018089;28;20033;-84
2022/11/08 03:10:40;;;;;;;19.25;10.82;;;;;;;;;;5004227;28;20450;-85
2022/11/08 03:13:27;;;;;;;18.60;11.23;;;;;;;;;;5017949;28;20041;-85
2022/11/08 03:16:13;;;;;;;18.60;10.60;;;;;;;;;;5018093;28;20045;-85
2022/11/08 03:18:59;;;;;;;17.88;10.63;;;;;;;;;;5019124;28;20400;-84
2022/11/08 03:21:45;;;;;;;18.48;10.43;;;;;;;;;;5004434;28;20026;-85
2022/11/08 03:24:32;;;;;;;17.35;9.80;;;;;;;;;;5004289;28;20091;-85
2022/11/08 03:27:19;;;;;;;19.05;10.82;;;;;;;;;;5017095;28;20039;-85
2022/11/08 03:30:05;;;;;;;17.95;10.10;;;;;;;;;;5004089;28;20134;-85
2022/11/08 03:32:52;;;;;;;17.77;10.35;;;;;;;;;;5004253;28;20117;-85
2022/11/08 03:35:38;;;;;;;18.13;9.38;;;;;;;;;;5004141;28;20048;-84
2022/11/08 03:38:24;;;;;;;17.05;9.85;;;;;;;;;;5031354;28;20036;-85
2022/11/08 03:41:10;;;;;;;15.55;8.68;;;;;;;;;;5030938;28;20041;-85
2022/11/08 03:43:55;;;;;;;17.20;9.82;;;;;;;;;;5017941;28;20041;-85
2022/11/08 03:46:41;;;;;;;17.15;9.98;;;;;;;;;;5030271;28;20087;-85
2022/11/08 03:49:28;;;;;;;19.40;10.07;;;;;;;;;;5016798;28;20037;-84
2022/11/08 03:52:15;;;;;;;16.95;10.00;;;;;;;;;;5003776;28;20061;-85
2022/11/08 03:55:00;;;;;;;17.33;8.73;;;;;;;;;;5016975;28;20025;-84
2022/11/08 03:57:47;;;;;;;15.00;9.05;;;;;;;;;;5029694;28;20041;-84
2022/11/08 04:00:34;;;;;;;13.82;8.75;;;;;;;;;;5004665;28;20104;-85
2022/11/08 04:03:21;;;;;;;14.95;9.00;;;;;;;;;;5017253;28;20065;-85
2022/11/08 04:06:07;;;;;;;15.00;9.15;;;;;;;;;;5001981;28;20025;-84
2022/11/08 04:08:52;;;;;;;14.73;8.60;;;;;;;;;;5020900;28;20037;-84
2022/11/08 04:24:03;;;;;;;13.55;8.10;;;;;;;;;;5039154;28;20554;-85
2022/11/08 04:26:49;;;;;;;13.68;7.95;;;;;;;;;;5023465;28;20040;-84
2022/11/08 04:29:35;;;;;;;12.55;6.93;;;;;;;;;;5035828;28;20075;-85
2022/11/08 04:32:22;;;;;;;12.40;7.13;;;;;;;;;;5023428;28;20067;-85
2022/11/08 04:35:09;;;;;;;14.55;8.00;;;;;;;;;;5023226;28;20033;-85
2022/11/08 04:37:59;;;;;;;13.30;7.38;;;;;;;;;;5023185;28;20099;-84
2022/11/08 04:40:45;;;;;;;11.77;7.40;;;;;;;;;;5023412;28;20124;-85
2022/11/08 04:43:30;;;;;;;13.38;7.97;;;;;;;;;;5022643;28;20055;-84
2022/11/08 04:46:18;;;;;;;12.43;7.60;;;;;;;;;;5023937;28;20410;-84
2022/11/08 04:49:04;;;;;;;11.13;7.40;;;;;;;;;;5023309;28;20037;-85
2022/11/08 04:51:51;;;;;;;11.27;7.35;;;;;;;;;;5023227;28;20033;-84
2022/11/08 04:54:36;;;;;;;14.35;7.57;;;;;;;;;;5022945;28;20037;-85
2022/11/08 04:57:22;;;;;;;12.77;6.53;;;;;;;;;;5023133;28;20037;-84
2022/11/08 05:00:08;;;;;;;12.93;7.05;;;;;;;;;;5022547;28;20037;-84
2022/11/08 05:02:55;;;;;;;12.48;7.10;;;;;;;;;;5022023;28;20037;-84
2022/11/08 05:05:41;;;;;;;13.38;7.28;;;;;;;;;;5020233;28;20033;-84
2022/11/08 05:08:28;;;;;;;12.70;7.10;;;;;;;;;;5020740;28;20034;-85
2022/11/08 05:11:15;;;;;;;12.10;7.38;;;;;;;;;;5006552;28;20037;-85
2022/11/08 05:14:01;;;;;;;11.65;7.05;;;;;;;;;;5020099;28;20043;-85
2022/11/08 05:16:47;;;;;;;12.35;7.82;;;;;;;;;;5021438;28;20114;-84
2022/11/08 05:25:46;;;;;;;11.25;6.18;;;;;;;;;;5023087;28;20037;-85
2022/11/08 05:28:33;;;;;;;10.15;6.82;;;;;;;;;;5020682;28;20139;-85
2022/11/08 05:31:19;;;;;;;10.80;6.75;;;;;;;;;;5006489;28;20052;-85
2022/11/08 05:34:06;;;;;;;11.77;6.38;;;;;;;;;;5020502;28;20041;-85
2022/11/08 05:36:52;;;;;;;10.82;6.60;;;;;;;;;;5019829;28;20038;-83
2022/11/08 05:39:38;;;;;;;10.68;5.88;;;;;;;;;;5019892;28;20048;-85
2022/11/08 05:42:25;;;;;;;10.90;5.90;;;;;;;;;;5020443;28;20033;-87
2022/11/08 05:45:12;;;;;;;10.48;5.88;;;;;;;;;;5019791;28;20076;-87
2022/11/08 05:48:02;;;;;;;11.43;6.80;;;;;;;;;;5020351;28;20040;-86
2022/11/08 05:50:52;;;;;;;9.43;5.78;;;;;;;;;;5020983;28;20033;-86
2022/11/08 05:53:38;;;;;;;10.52;5.95;;;;;;;;;;5020590;28;20091;-84
2022/11/08 05:56:24;;;;;;;10.98;6.15;;;;;;;;;;5006549;28;20064;-82
2022/11/08 05:59:11;;;;;;;9.38;5.82;;;;;;;;;;5006125;28;20108;-84
2022/11/08 06:01:57;;;;;;;9.00;4.95;;;;;;;;;;5019957;28;20034;-84
2022/11/08 06:04:43;;;;;;;9.93;5.97;;;;;;;;;;5018920;28;20084;-85
2022/11/08 06:07:30;;;;;;;9.80;5.90;;;;;;;;;;5005994;28;20120;-84
2022/11/08 06:10:15;;;;;;;11.25;5.75;;;;;;;;;;5019341;28;20083;-85
2022/11/08 06:13:01;;;;;;;8.52;5.07;;;;;;;;;;5018882;28;20030;-83
2022/11/08 06:15:48;;;;;;;8.93;5.65;;;;;;;;;;5019543;28;20037;-82
2022/11/08 06:18:35;;;;;;;9.88;5.43;;;;;;;;;;5026094;28;20084;-86
2022/11/08 06:21:22;;;;;;;9.32;5.35;;;;;;;;;;5025327;28;20484;-87
2022/11/08 06:24:07;;;;;;;8.32;5.53;;;;;;;;;;5024101;28;20072;-81
2022/11/08 06:26:53;;;;;;;8.75;4.88;;;;;;;;;;5024963;28;20029;-82
2022/11/08 06:29:41;;;;;;;9.82;5.32;;;;;;;;;;5024431;28;20079;-83
2022/11/08 06:32:27;;;;;;;9.57;4.97;;;;;;;;;;5024738;28;20090;-83
2022/11/08 06:35:12;;;;;;;27.70;19.25;;;;;;;;;;5024857;28;20049;-82
2022/11/08 06:38:00;;;;;;;20.38;13.35;;;;;;;;;;5024357;28;20530;-83
2022/11/08 06:40:46;;;;;;;19.95;11.65;;;;;;;;;;5025305;28;20029;-84
2022/11/08 06:43:32;;;;;;;17.27;10.23;;;;;;;;;;5024466;28;20025;-84
2022/11/08 06:46:18;;;;;;;15.70;10.32;;;;;;;;;;5024002;28;20048;-83
2022/11/08 06:49:04;;;;;;;18.30;10.00;;;;;;;;;;5024289;28;20491;-84
2022/11/08 06:51:51;;;;;;;14.10;9.40;;;;;;;;;;5024331;28;20033;-84
2022/11/08 06:54:37;;;;;;;16.52;9.13;;;;;;;;;;5025053;28;20044;-84
2022/11/08 06:57:22;;;;;;;14.13;8.35;;;;;;;;;;5024626;28;20514;-82
2022/11/08 07:00:09;;;;;;;17.08;8.82;;;;;;;;;;5024439;28;20033;-82
2022/11/08 07:02:57;;;;;;;17.38;9.02;;;;;;;;;;5024420;28;20063;-82
2022/11/08 07:05:43;;;;;;;15.70;9.60;;;;;;;;;;5023678;28;20037;-81
2022/11/08 07:08:30;;;;;;;23.17;9.52;;;;;;;;;;5024771;28;20032;-85
2022/11/08 07:11:17;;;;;;;18.40;8.88;;;;;;;;;;5023597;28;20037;-85
2022/11/08 07:14:03;;;;;;;16.25;8.50;;;;;;;;;;5023301;28;20048;-82
2022/11/08 07:16:49;;;;;;;15.27;7.47;;;;;;;;;;5022959;28;20079;-83
2022/11/08 07:19:34;;;;;;;18.85;7.32;;;;;;;;;;5024160;28;20058;-83
2022/11/08 07:22:20;;;;;;;16.65;7.90;;;;;;;;;;5022575;28;20041;-82
2022/11/08 07:25:06;;;;;;;12.88;6.70;;;;;;;;;;5023214;28;20037;-83
2022/11/08 07:27:56;;;;;;;16.40;6.70;;;;;;;;;;5021435;28;20445;-82
2022/11/08 07:30:42;;;;;;;13.50;6.32;;;;;;;;;;5023281;28;20778;-83
2022/11/08 07:33:29;;;;;;;16.13;6.90;;;;;;;;;;5022458;28;20036;-82
2022/11/08 07:36:16;;;;;;;14.07;5.88;;;;;;;;;;5024096;28;20029;-82
2022/11/08 07:39:02;;;;;;;13.13;6.43;;;;;;;;;;5023988;28;20032;-83
2022/11/08 07:41:48;;;;;;;11.35;5.65;;;;;;;;;;5023947;28;20572;-83
2022/11/08 07:44:33;;;;;;;14.30;5.88;;;;;;;;;;5036558;28;20056;-83
2022/11/08 07:47:19;;;;;;;12.45;6.30;;;;;;;;;;5023687;28;20471;-83
2022/11/08 07:50:05;;;;;;;9.48;5.95;;;;;;;;;;5022931;28;20557;-83
2022/11/08 07:52:31;;;;;;;11.30;5.53;;;;;;;;;;5011349;28;20026;-83
2022/11/08 07:54:56;;;;;;;13.57;5.82;;;;;;;;;;4987833;28;20052;-83
2022/11/08 07:57:21;;;;;;;10.32;5.57;;;;;;;;;;5034480;28;20033;-83
2022/11/08 07:59:48;;;;;;;11.38;4.70;;;;;;;;;;5034231;28;20040;-83
2022/11/08 08:02:13;;;;;;;9.30;4.78;;;;;;;;;;5034008;28;20036;-83
2022/11/08 08:04:39;;;;;;;13.20;5.20;;;;;;;;;;5017934;28;20111;-84
2022/11/08 08:07:13;;;;;;;8.30;4.43;;;;;;;;;;4996908;28;20025;-83
2022/11/08 08:09:39;;;;;;;9.50;5.00;;;;;;;;;;5033966;28;20107;-83
2022/11/08 08:12:07;;;;;;;9.68;6.32;;;;;;;;;;5017786;28;20033;-83
2022/11/08 08:14:32;;;;;;;14.27;8.63;;;;;;;;;;4997996;28;20041;-83
2022/11/08 08:16:57;;;;;;;20.67;13.13;;;;;;;;;;4997781;28;20033;-83
2022/11/08 08:19:23;;;;;;;24.65;15.93;;;;;;;;;;5014209;28;20037;-83
2022/11/08 08:21:48;;;;;;;24.85;17.30;;;;;;;;;;4983142;28;20029;-82
2022/11/08 08:24:15;;;;;;;28.23;19.35;;;;;;;;;;5017295;28;20426;-82
2022/11/08 08:26:40;;;;;;;28.38;20.40;;;;;;;;;;5017533;28;20036;-83
2022/11/08 08:29:06;;;;;;;28.38;20.45;;;;;;;;;;5034134;28;20107;-83
2022/11/08 08:31:31;;;;;;;29.75;20.17;;;;;;;;;;5033219;28;20546;-83
2022/11/08 08:33:57;;;;;;;33.60;21.88;;;;;;;;;;5017649;28;20052;-83
2022/11/08 08:36:23;;;;;;;34.28;24.20;;;;;;;;;;5033747;28;20379;-83
2022/11/08 08:38:48;;;;;;;44.55;23.92;;;;;;;;;;5050578;28;20047;-83
2022/11/08 08:41:14;;;;;;;34.17;24.00;;;;;;;;;;5033737;28;20036;-83
2022/11/08 08:43:39;;;;;;;31.23;24.40;;;;;;;;;;5033560;28;20112;-83
2022/11/08 08:46:05;;;;;;;33.60;24.02;;;;;;;;;;5049798;28;20406;-83
2022/11/08 08:48:32;;;;;;;34.28;24.63;;;;;;;;;;5017630;28;20102;-83
2022/11/08 08:50:57;;;;;;;36.45;24.83;;;;;;;;;;5017041;28;20032;-83
2022/11/08 08:53:23;;;;;;;36.75;26.02;;;;;;;;;;5017171;28;20041;-83
2022/11/08 08:55:51;;;;;;;32.97;25.25;;;;;;;;;;5033383;28;20100;-83
2022/11/08 08:58:17;;;;;;;35.78;24.92;;;;;;;;;;5033890;28;20513;-83
2022/11/08 09:00:42;;;;;;;32.20;23.45;;;;;;;;;;5033233;28;20040;-82
2022/11/08 09:03:08;;;;;;;33.55;24.88;;;;;;;;;;5033853;28;20033;-82
2022/11/08 09:05:34;;;;;;;38.58;28.60;;;;;;;;;;5014382;28;20115;-83
2022/11/08 09:07:59;;;;;;;46.13;34.53;;;;;;;;;;4981527;28;20037;-83
2022/11/08 09:10:25;;;;;;;56.67;42.33;;;;;;;;;;4980791;28;20062;-82
2022/11/08 09:12:51;;;;;;;63.45;46.60;;;;;;;;;;4981347;28;20033;-82
2022/11/08 09:15:16;;;;;;;69.18;49.83;;;;;;;;;;5013217;28;20025;-83
2022/11/08 09:17:42;;;;;;;67.68;51.35;;;;;;;;;;4997426;28;20501;-83
2022/11/08 09:20:08;;;;;;;67.47;48.67;;;;;;;;;;5013455;28;20033;-82
2022/11/08 09:22:33;;;;;;;70.10;50.83;;;;;;;;;;5013661;28;20032;-83
2022/11/08 09:24:59;;;;;;;67.10;49.50;;;;;;;;;;4981020;28;20017;-83
2022/11/08 09:27:26;;;;;;;66.53;47.97;;;;;;;;;;5013365;28;20029;-82
2022/11/08 09:29:52;;;;;;;62.90;45.17;;;;;;;;;;4996825;28;20498;-82
2022/11/08 09:32:17;;;;;;;57.95;44.63;;;;;;;;;;5013560;28;20034;-83
2022/11/08 09:34:43;;;;;;;56.92;41.88;;;;;;;;;;4996934;28;20127;-82
2022/11/08 09:37:09;;;;;;;59.85;43.47;;;;;;;;;;5013305;28;20395;-83
2022/11/08 09:39:34;;;;;;;53.67;38.55;;;;;;;;;;5014908;28;20033;-83
2022/11/08 09:42:00;;;;;;;52.42;39.05;;;;;;;;;;5016636;28;20438;-83
2022/11/08 09:44:40;;;;;;;53.72;38.25;;;;;;;;;;5049349;28;20065;-83
2022/11/08 09:47:23;;;;;;;50.83;39.30;;;;;;;;;;5049766;28;20592;-83
2022/11/08 09:50:03;;;;;;;48.47;35.80;;;;;;;;;;5020108;28;20029;-83
2022/11/08 09:52:28;;;;;;;47.33;37.03;;;;;;;;;;5020421;28;20046;-83
2022/11/08 09:55:00;;;;;;;47.70;34.97;;;;;;;;;;5036943;28;20442;-83
2022/11/08 09:57:55;;;;;;;;;;;;;;;;;;5020086;28;20044;-82
2022/11/08 10:00:21;;;;;;;43.38;32.20;;;;;;;;;;5027684;28;19938;-82
2022/11/08 10:02:48;;;;;;;45.08;32.63;;;;;;;;;;5020260;28;20498;-82
2022/11/08 10:05:14;;;;;;;44.55;32.72;;;;;;;;;;5036375;28;20056;-83
2022/11/08 10:07:48;;;;;;;39.55;29.48;;;;;;;;;;5016310;28;20029;-83
2022/11/08 10:10:18;;;;;;;41.22;32.13;;;;;;;;;;5000427;28;20128;-82
2022/11/08 10:12:54;;;;;;;39.58;29.48;;;;;;;;;;5000046;28;20025;-82
2022/11/08 10:15:52;;;;;;;44.90;32.42;;;;;;;;;;5000756;28;20052;-83
2022/11/08 10:18:59;;;;;;;37.17;28.35;;;;;;;;;;5002129;28;20102;-83
2022/11/08 10:21:34;;;;;;;37.97;30.02;;;;;;;;;;5008074;28;20044;-83
2022/11/08 10:24:08;;;;;;;46.63;33.67;;;;;;;;;;5033336;28;20034;-83
2022/11/08 10:26:41;;;;;;;50.65;38.20;;;;;;;;;;5000194;28;20044;-83
2022/11/08 10:29:08;;;;;;;55.20;41.92;;;;;;;;;;5001186;28;20025;-82
2022/11/08 10:31:34;;;;;;;59.20;43.33;;;;;;;;;;4999546;28;20033;-82
2022/11/08 10:33:59;;;;;;;60.38;44.67;;;;;;;;;;4999854;28;20555;-83
2022/11/08 10:36:45;;;;;;;61.97;46.00;;;;;;;;;;4999830;28;20109;-83
2022/11/08 10:39:27;;;;;;;61.17;45.28;;;;;;;;;;5002540;28;20083;-82
2022/11/08 10:42:09;;;;;;;58.40;44.92;;;;;;;;;;5001006;28;20120;-83
2022/11/08 10:44:34;;;;;;;58.55;44.10;;;;;;;;;;4999749;28;20075;-82
2022/11/08 10:47:01;;;;;;;64.25;44.13;;;;;;;;;;4999356;28;20475;-82
2022/11/08 10:49:31;;;;;;;62.10;46.53;;;;;;;;;;5016009;28;20064;-83
2022/11/08 10:52:00;;;;;;;63.03;46.85;;;;;;;;;;4999570;28;20045;-82
2022/11/08 10:54:48;;;;;;;62.92;46.03;;;;;;;;;;5000317;28;20032;-83
2022/11/08 10:57:15;;;;;;;59.28;43.25;;;;;;;;;;5000516;28;20480;-82
2022/11/08 10:59:41;;;;;;;60.42;45.25;;;;;;;;;;4999318;28;20032;-83
2022/11/08 11:02:16;;;;;;;57.17;42.78;;;;;;;;;;4999690;28;20029;-83
2022/11/08 11:04:42;;;;;;;62.40;44.78;;;;;;;;;;5015344;28;20029;-83
2022/11/08 11:07:33;;;;;;;58.75;43.10;;;;;;;;;;5007310;28;20071;-83
2022/11/08 11:10:19;;;;;;;58.65;45.50;;;;;;;;;;5015427;28;20434;-83
2022/11/08 11:12:50;;;;;;;60.55;44.67;;;;;;;;;;5031745;28;20036;-83
2022/11/08 11:15:15;;;;;;;53.13;41.22;;;;;;;;;;4999021;28;20419;-83
2022/11/08 11:17:43;;;;;;;54.88;41.35;;;;;;;;;;4999101;28;20040;-83
2022/11/08 11:20:18;;;;;;;57.60;42.60;;;;;;;;;;5015802;28;20021;-83
2022/11/08 11:22:44;;;;;;;54.35;41.00;;;;;;;;;;4999143;28;20033;-83
2022/11/08 11:25:15;;;;;;;53.08;37.95;;;;;;;;;;4998967;28;21963;-83
2022/11/08 11:27:41;;;;;;;55.97;40.33;;;;;;;;;;4999036;28;20083;-82
2022/11/08 11:30:27;;;;;;;50.83;37.25;;;;;;;;;;4998649;28;20485;-83
2022/11/08 11:33:23;;;;;;;49.58;37.85;;;;;;;;;;5032048;28;20033;-83
2022/11/08 11:35:52;;;;;;;46.33;37.42;;;;;;;;;;5024799;28;20041;-83
2022/11/08 11:38:37;;;;;;;47.05;34.25;;;;;;;;;;5014513;28;20049;-82
2022/11/08 11:41:08;;;;;;;47.70;36.22;;;;;;;;;;5014978;28;20480;-83
2022/11/08 11:43:45;;;;;;;48.90;35.40;;;;;;;;;;5015512;28;20049;-83
2022/11/08 11:46:10;;;;;;;46.17;34.50;;;;;;;;;;5014724;28;20037;-83
2022/11/08 11:48:40;;;;;;;43.88;33.03;;;;;;;;;;5030954;28;20024;-82
2022/11/08 11:51:09;;;;;;;43.40;31.92;;;;;;;;;;4999210;28;20033;-82
2022/11/08 11:53:35;;;;;;;42.70;32.30;;;;;;;;;;5014539;28;20040;-83
2022/11/08 11:56:19;;;;;;;45.35;32.50;;;;;;;;;;4998535;28;20040;-82
2022/11/08 11:59:24;;;;;;;48.70;36.13;;;;;;;;;;5014823;28;20025;-83
2022/11/08 12:02:26;;;;;;;57.63;41.80;;;;;;;;;;5047894;28;20036;-83
2022/11/08 12:05:18;;;;;;;69.67;49.27;;;;;;;;;;5047263;28;20029;-83
2022/11/08 12:07:46;;;;;;;74.43;50.08;;;;;;;;;;5013227;28;20082;-83
2022/11/08 12:10:27;;;;;;;69.53;48.90;;;;;;;;;;4998477;28;20076;-83
2022/11/08 12:13:03;;;;;;;73.38;50.55;;;;;;;;;;4999764;28;20033;-83
2022/11/08 12:15:41;;;;;;;73.80;50.35;;;;;;;;;;4998763;28;20156;-83
2022/11/08 12:18:34;;;;;;;77.70;53.97;;;;;;;;;;4998516;28;20037;-83
2022/11/08 12:21:07;;;;;;;79.70;56.53;;;;;;;;;;5031056;28;20033;-83
2022/11/08 12:23:40;;;;;;;82.75;58.30;;;;;;;;;;4998313;28;20029;-82
2022/11/08 12:26:05;;;;;;;86.15;60.28;;;;;;;;;;5013969;28;20025;-83
2022/11/08 12:28:57;;;;;;;90.00;61.00;;;;;;;;;;5030945;28;20375;-82
2022/11/08 12:31:32;;;;;;;89.25;64.00;;;;;;;;;;5014870;28;20040;-83
2022/11/08 12:34:13;;;;;;;93.40;64.43;;;;;;;;;;5014352;28;20044;-83
2022/11/08 12:37:11;;;;;;;90.65;62.20;;;;;;;;;;5014817;28;20026;-82
2022/11/08 12:39:40;;;;;;;92.15;64.22;;;;;;;;;;5013073;28;20036;-83
2022/11/08 12:42:36;;;;;;;87.00;62.60;;;;;;;;;;5047307;28;20034;-83
2022/11/08 12:45:39;;;;;;;87.15;60.95;;;;;;;;;;4997172;28;20065;-83
2022/11/08 12:48:42;;;;;;;90.82;60.33;;;;;;;;;;5030284;28;20056;-83
2022/11/08 12:51:22;;;;;;;79.65;57.80;;;;;;;;;;5031130;28;20104;-83
2022/11/08 12:54:09;;;;;;;78.43;55.65;;;;;;;;;;5030398;28;20128;-83
2022/11/08 12:56:47;;;;;;;80.20;56.30;;;;;;;;;;5030238;28;20033;-83
2022/11/08 12:59:52;;;;;;;82.10;56.15;;;;;;;;;;4998179;28;20859;-83
2022/11/08 13:02:39;;;;;;;79.85;56.83;;;;;;;;;;5000796;28;20095;-84
2022/11/08 13:05:23;;;;;;;71.30;51.63;;;;;;;;;;5015403;28;20452;-84
2022/11/08 13:08:11;;;;;;;74.65;51.97;;;;;;;;;;5047809;28;20068;-84
2022/11/08 13:10:52;;;;;;;69.95;49.95;;;;;;;;;;5016278;28;20029;-84
2022/11/08 13:13:17;;;;;;;70.20;49.45;;;;;;;;;;5017010;28;20044;-83
2022/11/08 13:16:10;;;;;;;70.57;49.53;;;;;;;;;;5033246;28;20502;-84
2022/11/08 13:18:42;;;;;;;65.90;48.33;;;;;;;;;;5017183;28;20021;-84
2022/11/08 13:21:29;;;;;;;64.60;45.33;;;;;;;;;;5033447;28;20472;-82
2022/11/08 13:24:00;;;;;;;68.38;45.20;;;;;;;;;;5037225;28;20485;-83
2022/11/08 13:26:25;;;;;;;66.13;45.60;;;;;;;;;;5036814;28;20494;-84
2022/11/08 13:28:52;;;;;;;65.07;45.13;;;;;;;;;;5004840;28;20114;-83
2022/11/08 13:31:35;;;;;;;62.88;43.97;;;;;;;;;;5020872;28;20502;-84
2022/11/08 13:34:12;;;;;;;63.33;45.47;;;;;;;;;;5053566;28;20097;-84
2022/11/08 13:36:47;;;;;;;60.25;43.33;;;;;;;;;;5037173;28;20032;-83
2022/11/08 13:39:39;;;;;;;57.70;41.72;;;;;;;;;;5037307;28;20047;-83
2022/11/08 13:42:13;;;;;;;60.92;40.90;;;;;;;;;;5006084;28;20029;-84
2022/11/08 13:44:54;;;;;;;58.33;40.95;;;;;;;;;;5036778;28;20124;-84
2022/11/08 13:47:32;;;;;;;56.22;38.53;;;;;;;;;;5036833;28;20429;-84
2022/11/08 13:50:32;;;;;;;54.72;40.20;;;;;;;;;;5053536;28;20059;-84
2022/11/08 13:53:08;;;;;;;55.67;37.95;;;;;;;;;;5014252;28;20044;-84
2022/11/08 13:55:42;;;;;;;52.47;37.85;;;;;;;;;;5020172;28;20098;-83
2022/11/08 13:58:29;;;;;;;51.80;36.90;;;;;;;;;;5036892;28;20491;-84
2022/11/08 14:00:55;;;;;;;54.28;37.72;;;;;;;;;;5036634;28;20037;-84
2022/11/08 14:03:32;;;;;;;47.70;36.17;;;;;;;;;;5003836;28;20391;-83
2022/11/08 14:06:04;;;;;;;49.85;34.45;;;;;;;;;;5052933;28;20601;-84
2022/11/08 14:08:45;;;;;;;47.90;33.78;;;;;;;;;;5036522;28;20085;-83
2022/11/08 14:11:35;;;;;;;49.15;34.58;;;;;;;;;;5004109;28;20040;-84
2022/11/08 14:14:23;;;;;;;43.72;34.08;;;;;;;;;;5053378;28;20487;-84
2022/11/08 14:17:14;;;;;;;47.35;32.20;;;;;;;;;;5036365;28;20067;-84
2022/11/08 14:19:41;;;;;;;46.13;31.92;;;;;;;;;;5038671;28;20032;-83
2022/11/08 14:22:23;;;;;;;48.20;32.47;;;;;;;;;;5019636;28;20025;-83
2022/11/08 14:24:51;;;;;;;43.78;30.90;;;;;;;;;;5003828;28;20056;-83
2022/11/08 14:27:37;;;;;;;43.63;30.75;;;;;;;;;;5016036;28;20388;-83
2022/11/08 14:30:04;;;;;;;43.90;32.42;;;;;;;;;;5001010;28;20034;-83
2022/11/08 14:32:30;;;;;;;43.67;30.85;;;;;;;;;;4999692;28;20080;-83
2022/11/08 14:35:19;;;;;;;47.38;32.88;;;;;;;;;;4999688;28;20057;-84
2022/11/08 14:37:44;;;;;;;46.95;33.85;;;;;;;;;;5000058;28;20422;-83
2022/11/08 14:40:22;;;;;;;47.42;34.40;;;;;;;;;;4983897;28;20025;-83
2022/11/08 14:42:47;;;;;;;44.53;31.95;;;;;;;;;;5000448;28;20438;-84
2022/11/08 14:45:13;;;;;;;46.55;33.08;;;;;;;;;;5015621;28;20038;-82
2022/11/08 14:47:41;;;;;;;50.35;34.70;;;;;;;;;;4999487;28;20522;-84
2022/11/08 14:50:36;;;;;;;49.13;33.90;;;;;;;;;;5000082;28;20036;-84
2022/11/08 14:53:25;;;;;;;48.15;33.90;;;;;;;;;;4999316;28;20051;-83
2022/11/08 14:56:17;;;;;;;48.85;35.17;;;;;;;;;;5016018;28;20044;-83
2022/11/08 14:58:43;;;;;;;48.22;34.53;;;;;;;;;;4999557;28;20021;-83
2022/11/08 15:01:09;;;;;;;49.85;36.28;;;;;;;;;;4999021;28;20483;-83
2022/11/08 15:03:35;;;;;;;50.28;34.58;;;;;;;;;;4999368;28;20033;-84
2022/11/08 15:06:04;;;;;;;48.10;34.35;;;;;;;;;;4999450;28;20060;-83
2022/11/08 15:08:34;;;;;;;50.03;34.88;;;;;;;;;;5000036;28;20029;-83
2022/11/08 15:11:07;;;;;;;49.25;35.08;;;;;;;;;;4999248;28;20029;-83
2022/11/08 15:13:48;;;;;;;50.17;33.28;;;;;;;;;;4999345;28;20077;-83
2022/11/08 15:16:14;;;;;;;50.45;34.15;;;;;;;;;;4999636;28;20041;-83
2022/11/08 15:18:42;;;;;;;46.70;32.50;;;;;;;;;;4999649;28;20479;-83
2022/11/08 15:21:11;;;;;;;47.88;33.70;;;;;;;;;;4999070;28;20033;-83
2022/11/08 15:23:45;;;;;;;47.22;33.38;;;;;;;;;;5015235;28;20041;-83
2022/11/08 15:26:18;;;;;;;43.03;30.98;;;;;;;;;;5015852;28;20034;-82
2022/11/08 15:29:05;;;;;;;47.15;33.08;;;;;;;;;;4999049;28;20033;-83
2022/11/08 15:31:36;;;;;;;44.58;31.48;;;;;;;;;;5016497;28;20128;-83
2022/11/08 15:34:02;;;;;;;43.00;32.15;;;;;;;;;;4999521;28;20029;-83
2022/11/08 15:36:34;;;;;;;46.75;31.63;;;;;;;;;;4999081;28;20053;-83
2022/11/08 15:39:00;;;;;;;;;;;;;;;;;;4999469;28;20245;-83
2022/11/08 15:41:37;;;;;;;41.75;29.63;;;;;;;;;;4998675;28;19905;-83
2022/11/08 15:44:24;;;;;;;45.92;31.45;;;;;;;;;;4999079;28;20026;-83
2022/11/08 15:46:50;;;;;;;39.25;28.55;;;;;;;;;;4998449;28;20087;-83
2022/11/08 15:49:24;;;;;;;41.90;28.73;;;;;;;;;;5015220;28;20096;-83
2022/11/08 15:51:52;;;;;;;38.50;29.13;;;;;;;;;;4998858;28;20029;-82
2022/11/08 15:54:17;;;;;;;40.15;27.73;;;;;;;;;;4998334;28;20104;-83
2022/11/08 15:56:43;;;;;;;36.47;26.65;;;;;;;;;;4998186;28;20575;-82
2022/11/08 15:59:14;;;;;;;38.97;25.90;;;;;;;;;;4998238;28;20091;-83
2022/11/08 16:01:52;;;;;;;33.03;23.87;;;;;;;;;;4998494;28;20033;-83
2022/11/08 16:04:19;;;;;;;30.08;21.60;;;;;;;;;;4998413;28;20264;-83